Date,TemperatureHighF,TemperatureAvgF,TemperatureLowF,DewpointHighF,DewpointAvgF,DewpointLowF,HumidityHigh,HumidityAvg,HumidityLow,PressureMaxIn,PressureMinIn,WindSpeedMaxMPH,WindSpeedAvgMPH,GustSpeedMaxMPH,PrecipitationSumIn
2013-2-1,53.0,34.3,19.0,26.0,19.1,15.0,83,60,22,30.56,30.32,6,1,10,0.01
2013-2-2,54.0,38.6,25.0,28.0,22.5,15.0,81,56,21,30.51,30.18,6,1,11,0.00
2013-2-3,46.0,37.8,26.0,36.0,29.1,21.0,89,72,45,30.27,30.10,6,1,12,0.25
2013-2-4,50.0,34.3,23.0,25.0,20.1,17.0,87,61,28,30.37,30.18,6,1,14,0.01
2013-2-5,53.0,36.6,18.0,23.0,15.8,11.0,77,49,18,30.38,29.91,7,1,16,0.00
2013-2-6,47.0,35.1,19.0,21.0,9.8,-9.0,70,39,9,30.29,29.90,5,2,16,0.00
2013-2-7,50.0,33.4,13.0,18.0,8.4,-6.0,67,41,10,30.45,29.83,12,3,25,0.00
2013-2-8,28.0,21.9,18.0,20.0,16.8,13.0,84,80,70,30.00,29.84,12,4,21,0.00
2013-2-9,31.0,20.3,7.0,19.0,13.8,1.0,83,76,60,30.29,30.00,4,2,11,0.24
2013-2-10,33.0,15.8,-3.0,16.0,5.2,-9.0,79,64,36,30.46,30.19,6,1,14,0.02
2013-2-11,26.0,19.5,6.0,16.0,5.7,-5.0,83,58,27,30.57,30.14,10,3,19,4.40
2013-2-12,36.0,22.3,2.0,10.0,4.2,-5.0,73,49,28,30.77,30.52,3,1,8,0.02
2013-2-13,44.0,29.4,14.0,18.0,12.1,5.0,76,52,27,30.63,30.38,6,2,10,0.00
2013-2-14,43.0,30.8,14.0,22.0,15.2,10.0,83,56,31,30.57,30.39,6,2,11,0.00
2013-2-15,49.0,37.5,19.0,15.0,5.6,-2.0,76,31,14,30.54,30.39,14,6,21,0.00
2013-2-16,51.0,39.0,22.0,17.0,5.5,-5.0,62,28,12,30.40,30.05,6,2,11,0.00
2013-2-17,49.0,34.2,17.0,17.0,10.0,3.0,74,42,18,30.23,30.06,6,2,17,0.00
2013-2-18,52.0,29.4,12.0,20.0,11.9,3.0,69,53,15,30.32,29.97,7,2,16,0.00
2013-2-19,43.0,26.4,16.0,22.0,11.5,-17.0,84,58,8,30.06,29.63,8,4,21,0.00
2013-2-20,26.0,19.7,12.0,19.0,14.6,7.0,85,80,71,30.22,29.62,8,2,16,0.04
2013-2-21,28.0,17.2,0.0,17.0,7.5,-7.0,80,66,47,30.41,30.21,5,2,12,0.09
2013-2-22,40.0,23.7,3.0,15.0,7.2,-3.0,76,53,27,30.61,30.36,6,1,11,0.07
2013-2-23,48.0,33.2,14.0,21.0,11.8,4.0,81,47,16,30.39,29.93,10,4,25,0.00
2013-2-24,32.0,25.0,15.0,8.0,-2.7,-7.0,52,30,19,30.48,30.07,12,6,25,0.00
2013-2-25,48.0,31.8,11.0,10.0,3.0,-5.0,64,34,15,30.57,30.07,5,2,12,0.00
2013-2-26,41.0,29.0,19.0,12.0,4.8,-6.0,60,38,19,30.37,30.07,7,2,12,0.00
2013-2-27,40.0,28.2,14.0,10.0,4.2,-1.0,66,40,18,30.57,30.39,5,1,11,0.00
2013-2-28,47.0,32.5,16.0,15.0,8.9,5.0,69,42,19,30.70,30.52,5,2,12,0.00